DAL12B KMIA-KIAH
Flight info
| Callsign | DAL12B |
|---|---|
| Flight time | N/A |
| Altitude | 36000 |
| Route | GLADZ4 BAGGS REMIS Y280 LEV NNCEE2 |
| Aircraft | L101/H-SDFGHIRWXY/S |
Departure
| Time | 2026-04-30 19:39 |
|---|---|
| Airport | Miami International Airport (KMIA) |
Arrival
| Time | N/A |
|---|---|
| Airport | George Bush Intercontinental Airport (KIAH) |
| Time | Latitude | Longitude | Altitude | Speed | Heading |
|---|---|---|---|---|---|
| 2026-04-30 19:16 | 25.79051 | -80.27936 | 29 ft | 0 kts | 29° |
| 2026-04-30 19:30 | 25.79006 | -80.27963 | 29 ft | 2 kts | 29° |
| 2026-04-30 19:30 | 25.78977 | -80.27985 | 31 ft | 3 kts | 1° |
| 2026-04-30 19:31 | 25.78959 | -80.27979 | 29 ft | 0 kts | 305° |
| 2026-04-30 19:33 | 25.78959 | -80.27981 | 29 ft | 0 kts | 295° |
| 2026-04-30 19:34 | 25.78959 | -80.27985 | 30 ft | 1 kts | 278° |
| 2026-04-30 19:34 | 25.78955 | -80.27991 | 31 ft | 2 kts | 240° |
| 2026-04-30 19:34 | 25.78930 | -80.28062 | 31 ft | 10 kts | 292° |
| 2026-04-30 19:35 | 25.78977 | -80.28148 | 30 ft | 16 kts | 301° |
| 2026-04-30 19:35 | 25.79038 | -80.28269 | 30 ft | 20 kts | 299° |
| 2026-04-30 19:35 | 25.79114 | -80.28414 | 26 ft | 24 kts | 308° |
| 2026-04-30 19:35 | 25.79214 | -80.28577 | 29 ft | 27 kts | 296° |
| 2026-04-30 19:36 | 25.79301 | -80.28748 | 24 ft | 26 kts | 301° |
| 2026-04-30 19:36 | 25.79390 | -80.28925 | 29 ft | 26 kts | 303° |
| 2026-04-30 19:36 | 25.79545 | -80.29230 | 28 ft | 21 kts | 299° |
| 2026-04-30 19:37 | 25.79623 | -80.29377 | 29 ft | 24 kts | 298° |
| 2026-04-30 19:37 | 25.79708 | -80.29542 | 28 ft | 23 kts | 299° |
| 2026-04-30 19:37 | 25.79789 | -80.29710 | 26 ft | 26 kts | 298° |
| 2026-04-30 19:37 | 25.79852 | -80.29834 | 22 ft | 17 kts | 301° |
| 2026-04-30 19:38 | 25.79914 | -80.29954 | 24 ft | 20 kts | 300° |
| 2026-04-30 19:38 | 25.79997 | -80.30081 | 27 ft | 20 kts | 322° |
| 2026-04-30 19:38 | 25.80074 | -80.30080 | 25 ft | 9 kts | 65° |
| 2026-04-30 19:38 | 25.80076 | -80.30033 | 23 ft | 19 kts | 89° |
| 2026-04-30 19:39 | 25.80098 | -80.29507 | 23 ft | 116 kts | 88° |
| 2026-04-30 19:39 | 25.80152 | -80.28332 | 239 ft | 179 kts | 87° |
| 2026-04-30 19:39 | 25.80221 | -80.26852 | 1162 ft | 199 kts | 87° |
| 2026-04-30 19:39 | 25.80292 | -80.25383 | 2229 ft | 189 kts | 87° |
| 2026-04-30 19:40 | 25.80355 | -80.23918 | 3104 ft | 187 kts | 87° |
| 2026-04-30 19:40 | 25.80423 | -80.22337 | 3528 ft | 223 kts | 87° |
| 2026-04-30 19:40 | 25.80567 | -80.20582 | 3715 ft | 233 kts | 78° |
| 2026-04-30 19:40 | 25.81303 | -80.19187 | 4655 ft | 168 kts | 39° |
| 2026-04-30 19:41 | 25.82117 | -80.18570 | 6248 ft | 125 kts | 33° |
| 2026-04-30 19:41 | 25.82964 | -80.17869 | 6474 ft | 173 kts | 38° |
| 2026-04-30 19:41 | 25.84016 | -80.16999 | 6901 ft | 194 kts | 30° |
| 2026-04-30 19:41 | 25.85153 | -80.16420 | 8242 ft | 180 kts | 18° |
| 2026-04-30 19:42 | 25.86578 | -80.16009 | 8376 ft | 244 kts | 8° |
| 2026-04-30 19:42 | 25.88386 | -80.15963 | 8780 ft | 270 kts | 352° |
| 2026-04-30 19:42 | 25.90181 | -80.16378 | 8979 ft | 259 kts | 344° |
| 2026-04-30 19:42 | 25.91902 | -80.16919 | 8867 ft | 253 kts | 344° |
| 2026-04-30 19:43 | 25.93627 | -80.17426 | 8785 ft | 267 kts | 345° |
| 2026-04-30 19:43 | 25.95493 | -80.18116 | 8933 ft | 301 kts | 331° |
| 2026-04-30 19:43 | 25.97089 | -80.19593 | 9389 ft | 291 kts | 305° |
| 2026-04-30 19:44 | 25.98629 | -80.23704 | 10338 ft | 310 kts | 286° |
| 2026-04-30 19:44 | 25.99157 | -80.26153 | 10456 ft | 341 kts | 279° |
| 2026-04-30 19:44 | 25.99387 | -80.28881 | 10574 ft | 367 kts | 272° |
| 2026-04-30 19:44 | 25.99459 | -80.31760 | 10879 ft | 384 kts | 271° |
| 2026-04-30 19:45 | 25.99532 | -80.34728 | 11764 ft | 382 kts | 272° |
| 2026-04-30 19:45 | 25.99625 | -80.37647 | 12866 ft | 377 kts | 270° |
| 2026-04-30 19:45 | 25.99381 | -80.40580 | 13378 ft | 389 kts | 256° |
| 2026-04-30 19:45 | 25.98278 | -80.43367 | 13886 ft | 399 kts | 237° |
| 2026-04-30 19:46 | 25.96626 | -80.45810 | 15015 ft | 390 kts | 232° |
| 2026-04-30 19:46 | 25.94992 | -80.48240 | 15821 ft | 395 kts | 235° |
| 2026-04-30 19:46 | 25.93451 | -80.50835 | 16166 ft | 410 kts | 238° |
| 2026-04-30 19:46 | 25.91904 | -80.53517 | 16978 ft | 410 kts | 237° |
| 2026-04-30 19:47 | 25.90286 | -80.56109 | 17908 ft | 410 kts | 234° |
| 2026-04-30 19:47 | 25.89146 | -80.57806 | 18257 ft | 418 kts | 233° |
| 2026-04-30 19:47 | 25.86733 | -80.61218 | 19253 ft | 423 kts | 231° |
| 2026-04-30 19:47 | 25.84894 | -80.63797 | 19964 ft | 427 kts | 232° |
| 2026-04-30 19:48 | 25.83052 | -80.66411 | 20694 ft | 432 kts | 232° |
| 2026-04-30 19:48 | 25.81200 | -80.69059 | 21399 ft | 436 kts | 233° |
| 2026-04-30 19:48 | 25.79532 | -80.71884 | 22053 ft | 441 kts | 243° |
| 2026-04-30 19:48 | 25.78385 | -80.75051 | 22733 ft | 444 kts | 252° |
| 2026-04-30 19:49 | 25.77487 | -80.78308 | 23357 ft | 449 kts | 253° |
| 2026-04-30 19:49 | 25.75502 | -80.84933 | 24582 ft | 457 kts | 251° |
| 2026-04-30 19:49 | 25.74463 | -80.88292 | 25179 ft | 461 kts | 252° |
| 2026-04-30 19:50 | 25.73485 | -80.91709 | 25495 ft | 471 kts | 253° |
| 2026-04-30 19:50 | 25.72517 | -80.95230 | 25627 ft | 484 kts | 253° |
| 2026-04-30 19:50 | 25.71519 | -80.98854 | 25752 ft | 497 kts | 253° |
| 2026-04-30 19:50 | 25.70496 | -81.02530 | 26305 ft | 497 kts | 253° |
| 2026-04-30 19:51 | 25.69486 | -81.06157 | 27314 ft | 490 kts | 253° |
| 2026-04-30 19:51 | 25.68487 | -81.09772 | 27862 ft | 491 kts | 253° |
| 2026-04-30 19:51 | 25.67497 | -81.13379 | 28703 ft | 487 kts | 253° |
| 2026-04-30 19:51 | 25.66527 | -81.16979 | 29293 ft | 487 kts | 255° |
| 2026-04-30 19:52 | 25.65973 | -81.20691 | 29863 ft | 488 kts | 269° |
| 2026-04-30 19:52 | 25.66379 | -81.24393 | 30577 ft | 485 kts | 285° |
| 2026-04-30 19:52 | 25.67522 | -81.27896 | 31224 ft | 482 kts | 292° |
| 2026-04-30 19:52 | 25.68798 | -81.31284 | 31797 ft | 481 kts | 292° |
| 2026-04-30 19:53 | 25.70054 | -81.34717 | 32382 ft | 480 kts | 292° |
| 2026-04-30 19:53 | 25.71331 | -81.38135 | 32958 ft | 479 kts | 293° |
| 2026-04-30 19:53 | 25.72692 | -81.41504 | 33537 ft | 478 kts | 295° |
| 2026-04-30 19:53 | 25.74121 | -81.44819 | 34112 ft | 476 kts | 296° |
| 2026-04-30 19:54 | 25.75588 | -81.48117 | 34685 ft | 475 kts | 296° |
| 2026-04-30 19:54 | 25.77056 | -81.51393 | 35254 ft | 474 kts | 296° |
| 2026-04-30 19:54 | 25.78526 | -81.54668 | 35710 ft | 475 kts | 296° |
| 2026-04-30 19:54 | 25.80010 | -81.57965 | 35895 ft | 477 kts | 296° |
| 2026-04-30 19:55 | 25.82981 | -81.64543 | 36010 ft | 476 kts | 296° |
| 2026-04-30 19:55 | 25.85931 | -81.71063 | 36030 ft | 475 kts | 296° |
| 2026-04-30 19:56 | 25.88975 | -81.77565 | 36012 ft | 475 kts | 304° |
| 2026-04-30 19:56 | 25.91116 | -81.80335 | 35964 ft | 472 kts | 320° |
| 2026-04-30 19:56 | 25.93744 | -81.82494 | 36034 ft | 470 kts | 326° |
| 2026-04-30 19:57 | 25.99187 | -81.86628 | 36031 ft | 475 kts | 323° |
| 2026-04-30 19:57 | 26.04424 | -81.91113 | 36034 ft | 475 kts | 322° |
| 2026-04-30 19:58 | 26.09681 | -81.95566 | 36034 ft | 475 kts | 323° |
| 2026-04-30 19:58 | 26.14949 | -82.00004 | 36033 ft | 475 kts | 322° |
| 2026-04-30 19:59 | 26.20208 | -82.04453 | 36035 ft | 475 kts | 322° |
| 2026-04-30 20:00 | 26.28121 | -82.11120 | 36033 ft | 475 kts | 323° |
| 2026-04-30 20:00 | 26.33392 | -82.15561 | 36033 ft | 475 kts | 322° |
| 2026-04-30 20:01 | 26.41267 | -82.22224 | 36036 ft | 475 kts | 322° |
| 2026-04-30 20:01 | 26.46533 | -82.26688 | 36032 ft | 475 kts | 322° |
| 2026-04-30 20:02 | 26.54431 | -82.33393 | 36036 ft | 475 kts | 322° |